createdAt,value
2018-11-05T00:00:49.152Z,25.70
2018-11-05T00:01:54.625Z,28.23
2018-11-05T00:03:00.163Z,27.07
2018-11-05T00:04:05.917Z,25.67
2018-11-05T00:05:11.958Z,27.37
2018-11-05T00:06:17.382Z,26.57
2018-11-05T00:07:22.870Z,26.57
2018-11-05T00:08:28.364Z,24.73
2018-11-05T00:09:33.845Z,22.90
2018-11-05T00:10:39.267Z,23.70
2018-11-05T00:11:44.785Z,24.20
2018-11-05T00:12:50.356Z,24.40
2018-11-05T00:13:55.785Z,23.10
2018-11-05T00:15:01.278Z,23.43
2018-11-05T00:16:06.909Z,25.80
2018-11-05T00:17:12.393Z,24.90
2018-11-05T00:18:17.857Z,27.17
2018-11-05T00:19:23.323Z,24.07
2018-11-05T00:20:28.772Z,26.13
2018-11-05T00:21:34.210Z,27.27
2018-11-05T00:22:39.785Z,27.20
2018-11-05T00:23:45.220Z,27.30
2018-11-05T00:24:50.663Z,26.00
2018-11-05T00:25:56.151Z,28.07
2018-11-05T00:27:01.654Z,26.17
2018-11-05T00:28:07.398Z,27.43
2018-11-05T00:29:12.890Z,27.50
2018-11-05T00:30:18.334Z,31.80
2018-11-05T00:31:23.777Z,28.77
2018-11-05T00:32:29.239Z,27.63
2018-11-05T00:33:34.836Z,30.03
2018-11-05T00:34:40.381Z,29.30
2018-11-05T00:35:45.922Z,28.67
2018-11-05T00:36:51.485Z,29.33
2018-11-05T00:37:56.933Z,30.73
2018-11-05T00:39:02.512Z,31.67
2018-11-05T00:40:11.537Z,28.53
2018-11-05T00:41:16.985Z,28.33
2018-11-05T00:42:22.547Z,29.63
2018-11-05T00:43:28.040Z,27.93
2018-11-05T00:44:33.512Z,26.30
2018-11-05T00:45:39.092Z,28.30
2018-11-05T00:46:44.593Z,29.50
2018-11-05T00:47:50.221Z,27.20
2018-11-05T00:48:55.659Z,26.03
2018-11-05T00:50:01.144Z,28.90
2018-11-05T00:51:06.726Z,27.50
2018-11-05T00:52:12.181Z,27.90
2018-11-05T00:53:17.705Z,26.80
2018-11-05T00:54:23.112Z,27.70
2018-11-05T00:55:28.647Z,27.93
2018-11-05T00:56:34.620Z,29.47
2018-11-05T00:57:40.066Z,29.60
2018-11-05T00:58:45.500Z,29.97
2018-11-05T00:59:50.945Z,29.33
2018-11-05T01:00:56.384Z,28.80
2018-11-05T01:02:01.871Z,26.63
2018-11-05T01:03:07.391Z,28.80
2018-11-05T01:04:12.851Z,28.90
2018-11-05T01:05:18.405Z,27.50
2018-11-05T01:06:23.946Z,28.53
2018-11-05T01:07:29.428Z,28.90
2018-11-05T01:08:34.853Z,28.40
2018-11-05T01:09:40.333Z,27.90
2018-11-05T01:10:45.838Z,27.67
2018-11-05T01:11:51.461Z,29.43
2018-11-05T01:12:56.995Z,29.10
2018-11-05T01:14:02.419Z,29.70
2018-11-05T01:15:11.735Z,28.57
2018-11-05T01:16:17.160Z,27.73
2018-11-05T01:17:22.608Z,29.17
2018-11-05T01:18:28.145Z,27.30
2018-11-05T01:19:33.625Z,26.93
2018-11-05T01:20:39.184Z,28.50
2018-11-05T01:21:44.642Z,26.20
2018-11-05T01:22:50.140Z,26.90
2018-11-05T01:23:55.636Z,28.43
2018-11-05T01:25:01.084Z,27.90
2018-11-05T01:26:06.718Z,26.90
2018-11-05T01:27:12.141Z,27.30
2018-11-05T01:28:17.656Z,29.17
2018-11-05T01:29:23.170Z,26.60
2018-11-05T01:30:28.606Z,28.00
2018-11-05T01:31:34.158Z,26.50
2018-11-05T01:32:39.673Z,26.57
2018-11-05T01:33:45.183Z,27.10
2018-11-05T01:34:50.632Z,27.37
2018-11-05T01:35:56.121Z,30.43
2018-11-05T01:37:01.657Z,30.57
2018-11-05T01:38:07.121Z,30.70
2018-11-05T01:39:12.668Z,29.67
2018-11-05T01:40:18.117Z,29.00
2018-11-05T01:41:23.593Z,28.57
2018-11-05T01:42:29.144Z,26.90
2018-11-05T01:43:34.564Z,26.83
2018-11-05T01:44:40.057Z,28.17
2018-11-05T01:45:45.512Z,27.67
2018-11-05T01:46:50.984Z,27.47
2018-11-05T01:47:56.468Z,26.00
2018-11-05T01:49:02.451Z,25.30
2018-11-05T01:50:10.252Z,25.40
2018-11-05T01:51:15.752Z,25.87
2018-11-05T01:52:21.166Z,26.33
2018-11-05T01:53:26.661Z,25.77
2018-11-05T01:54:32.218Z,28.10
2018-11-05T01:55:37.756Z,28.20
2018-11-05T01:56:43.321Z,29.07
2018-11-05T01:57:48.876Z,25.90
2018-11-05T01:58:54.322Z,27.07
2018-11-05T01:59:59.841Z,28.10
2018-11-05T02:01:05.852Z,30.07
2018-11-05T02:02:11.339Z,26.67
2018-11-05T02:03:16.761Z,27.57
2018-11-05T02:04:22.192Z,28.73
2018-11-05T02:05:27.656Z,28.67
2018-11-05T02:06:33.154Z,28.73
2018-11-05T02:07:38.594Z,27.80
2018-11-05T02:08:44.120Z,28.23
2018-11-05T02:09:49.589Z,28.10
2018-11-05T02:10:55.029Z,28.20
2018-11-05T02:12:00.591Z,28.60
2018-11-05T02:13:06.170Z,26.70
2018-11-05T02:14:11.752Z,29.10
2018-11-05T02:15:17.216Z,28.07
2018-11-05T02:16:22.688Z,26.83
2018-11-05T02:17:28.180Z,27.30
2018-11-05T02:18:33.639Z,28.43
2018-11-05T02:19:39.178Z,28.40
2018-11-05T02:20:44.672Z,26.87
2018-11-05T02:21:50.117Z,29.00
2018-11-05T02:22:55.577Z,26.10
2018-11-05T02:24:00.993Z,28.20
2018-11-05T02:25:07.970Z,28.93
2018-11-05T02:26:13.644Z,27.00
2018-11-05T02:27:19.128Z,26.60
2018-11-05T02:28:24.631Z,28.03
2018-11-05T02:29:30.160Z,27.73
2018-11-05T02:30:35.645Z,28.90
2018-11-05T02:31:41.104Z,26.43
2018-11-05T02:32:47.448Z,29.80
2018-11-05T02:33:52.914Z,26.60
2018-11-05T02:34:58.459Z,26.30
2018-11-05T02:36:03.951Z,30.90
2018-11-05T02:37:09.470Z,25.40
2018-11-05T02:38:14.902Z,25.87
2018-11-05T02:39:20.369Z,27.50
2018-11-05T02:40:25.805Z,29.00
2018-11-05T02:41:31.231Z,28.00
2018-11-05T02:42:36.682Z,26.47
2018-11-05T02:43:42.285Z,28.43
2018-11-05T02:44:47.949Z,27.60
2018-11-05T02:45:53.352Z,27.17
2018-11-05T02:46:58.884Z,29.03
2018-11-05T02:48:04.369Z,26.17
2018-11-05T02:49:09.915Z,26.33
2018-11-05T02:50:16.096Z,24.37
2018-11-05T02:51:21.532Z,26.93
2018-11-05T02:52:26.932Z,25.67
2018-11-05T02:53:32.439Z,26.03
2018-11-05T02:54:37.930Z,26.00
2018-11-05T02:55:43.408Z,24.63
2018-11-05T02:56:48.824Z,25.87
2018-11-05T02:57:54.243Z,26.10
2018-11-05T02:58:59.686Z,25.27
2018-11-05T03:00:07.208Z,25.50
2018-11-05T03:01:12.817Z,25.13
2018-11-05T03:02:18.200Z,25.67
2018-11-05T03:03:23.779Z,25.90
2018-11-05T03:04:29.095Z,26.17
2018-11-05T03:05:34.509Z,28.43
2018-11-05T03:06:39.994Z,25.00
2018-11-05T03:07:46.355Z,25.83
2018-11-05T03:08:51.762Z,25.70
2018-11-05T03:09:57.256Z,26.50
2018-11-05T03:11:02.710Z,26.80
2018-11-05T03:12:08.293Z,26.37
2018-11-05T03:13:13.802Z,26.10
2018-11-05T03:14:19.268Z,26.30
2018-11-05T03:15:24.779Z,28.90
2018-11-05T03:16:30.185Z,25.67
2018-11-05T03:17:35.729Z,25.50
2018-11-05T03:18:41.129Z,23.33
2018-11-05T03:19:46.598Z,22.33
2018-11-05T03:20:52.031Z,24.47
2018-11-05T03:21:57.465Z,24.63
2018-11-05T03:23:02.954Z,25.27
2018-11-05T03:24:08.388Z,25.20
2018-11-05T03:25:13.857Z,25.13
2018-11-05T03:26:19.351Z,22.27
2018-11-05T03:27:24.794Z,23.87
2018-11-05T03:28:30.272Z,23.90
2018-11-05T03:29:35.734Z,23.87
2018-11-05T03:30:41.149Z,23.07
2018-11-05T03:31:46.632Z,23.33
2018-11-05T03:32:52.119Z,21.90
2018-11-05T03:33:57.567Z,22.10
2018-11-05T03:35:03.027Z,22.20
2018-11-05T03:36:08.629Z,22.97
2018-11-05T03:37:14.153Z,21.17
2018-11-05T03:38:19.585Z,22.77
2018-11-05T03:39:25.027Z,21.77
2018-11-05T03:40:30.498Z,21.70
2018-11-05T03:41:35.962Z,22.80
2018-11-05T03:42:42.196Z,22.40
2018-11-05T03:43:47.669Z,22.07
2018-11-05T03:44:53.161Z,21.53
2018-11-05T03:45:58.638Z,21.80
2018-11-05T03:47:04.074Z,21.73
2018-11-05T03:48:09.548Z,21.37
2018-11-05T03:49:15.236Z,19.80
2018-11-05T03:50:20.669Z,20.90
2018-11-05T03:51:26.120Z,20.37
2018-11-05T03:52:31.636Z,20.47
2018-11-05T03:53:37.042Z,21.53
2018-11-05T03:54:42.483Z,19.80
2018-11-05T03:55:48.030Z,20.03
2018-11-05T03:56:53.469Z,20.80
2018-11-05T03:57:58.906Z,20.30
2018-11-05T03:59:04.408Z,20.00
2018-11-05T04:00:12.244Z,20.80
2018-11-05T04:01:17.758Z,20.57
2018-11-05T04:02:23.244Z,19.40
2018-11-05T04:03:28.879Z,20.57
2018-11-05T04:04:34.309Z,19.40
2018-11-05T04:05:39.833Z,21.43
2018-11-05T04:06:45.453Z,20.57
2018-11-05T04:07:51.202Z,21.37
2018-11-05T04:08:56.833Z,19.83
2018-11-05T04:10:02.693Z,19.67
2018-11-05T04:11:08.234Z,20.47
2018-11-05T04:12:13.809Z,21.60
2018-11-05T04:13:19.305Z,21.73
2018-11-05T04:14:24.789Z,20.00
2018-11-05T04:15:30.420Z,20.17
2018-11-05T04:16:35.799Z,21.17
2018-11-05T04:17:41.352Z,21.83
2018-11-05T04:18:46.832Z,23.00
2018-11-05T04:19:52.302Z,20.63
2018-11-05T04:20:57.744Z,24.63
2018-11-05T04:22:03.189Z,22.67
2018-11-05T04:23:08.745Z,22.40
2018-11-05T04:24:15.245Z,22.60
2018-11-05T04:25:20.749Z,24.97
2018-11-05T04:26:26.271Z,22.67
2018-11-05T04:27:31.771Z,25.13
2018-11-05T04:28:37.285Z,24.10
2018-11-05T04:29:42.957Z,22.97
2018-11-05T04:30:48.445Z,24.00
2018-11-05T04:31:53.898Z,24.13
2018-11-05T04:32:59.336Z,24.17
2018-11-05T04:34:05.082Z,22.87
2018-11-05T04:35:11.260Z,22.80
2018-11-05T04:36:16.785Z,23.63
2018-11-05T04:37:22.232Z,24.00
2018-11-05T04:38:27.744Z,23.37
2018-11-05T04:39:33.216Z,22.37
2018-11-05T04:40:38.680Z,24.97
2018-11-05T04:41:44.229Z,24.37
2018-11-05T04:42:49.761Z,25.83
2018-11-05T04:43:55.185Z,24.93
2018-11-05T04:45:00.738Z,23.60
2018-11-05T04:46:06.745Z,24.33
2018-11-05T04:47:12.262Z,24.27
2018-11-05T04:48:17.718Z,23.80
2018-11-05T04:49:23.159Z,24.53
2018-11-05T04:50:28.645Z,24.73
2018-11-05T04:51:34.119Z,24.00
2018-11-05T04:52:40.389Z,24.50
2018-11-05T04:53:45.906Z,24.07
2018-11-05T04:54:51.546Z,22.77
2018-11-05T04:55:57.098Z,24.37
2018-11-05T04:57:02.664Z,23.60
2018-11-05T04:58:08.146Z,22.50
2018-11-05T04:59:13.581Z,24.27
2018-11-05T05:00:19.377Z,22.70
2018-11-05T05:01:24.884Z,24.13
2018-11-05T05:02:30.394Z,23.40
2018-11-05T05:03:35.982Z,22.30
2018-11-05T05:04:41.513Z,24.33
2018-11-05T05:05:47.137Z,23.50
2018-11-05T05:06:52.710Z,23.13
2018-11-05T05:07:58.280Z,23.87
2018-11-05T05:09:04.089Z,21.73
2018-11-05T05:10:10.473Z,23.60
2018-11-05T05:11:16.104Z,23.47
2018-11-05T05:12:21.999Z,25.20
2018-11-05T05:13:27.623Z,24.07
2018-11-05T05:14:33.253Z,24.17
2018-11-05T05:15:38.701Z,22.03
2018-11-05T05:16:44.129Z,22.10
2018-11-05T05:17:49.644Z,22.47
2018-11-05T05:18:55.113Z,23.17
2018-11-05T05:20:00.559Z,22.80
2018-11-05T05:21:06.257Z,21.57
2018-11-05T05:22:11.715Z,20.60
2018-11-05T05:23:17.225Z,22.30
2018-11-05T05:24:22.725Z,22.83
2018-11-05T05:25:28.223Z,22.97
2018-11-05T05:26:33.657Z,22.37
2018-11-05T05:27:39.382Z,23.07
2018-11-05T05:28:45.684Z,22.40
2018-11-05T05:29:51.106Z,24.20
2018-11-05T05:30:56.634Z,22.90
2018-11-05T05:32:02.136Z,24.77
2018-11-05T05:33:07.760Z,23.27
2018-11-05T05:34:13.194Z,23.77
2018-11-05T05:35:19.595Z,23.70
2018-11-05T05:36:25.388Z,23.00
2018-11-05T05:37:30.890Z,21.67
2018-11-05T05:38:36.445Z,22.40
2018-11-05T05:39:41.922Z,22.30
2018-11-05T05:40:47.405Z,22.83
2018-11-05T05:41:52.836Z,21.27
2018-11-05T05:42:58.453Z,21.00
2018-11-05T05:44:04.147Z,22.37
2018-11-05T05:45:11.065Z,21.50
2018-11-05T05:46:16.581Z,21.57
2018-11-05T05:47:22.706Z,22.03
2018-11-05T05:48:28.813Z,21.23
2018-11-05T05:49:34.480Z,23.90
2018-11-05T05:50:40.025Z,22.10
2018-11-05T05:51:45.436Z,22.90
2018-11-05T05:52:50.905Z,21.33
2018-11-05T05:53:56.376Z,21.20
2018-11-05T05:55:01.884Z,22.57
2018-11-05T05:56:13.926Z,22.00
2018-11-05T05:57:19.663Z,22.53
2018-11-05T05:58:25.216Z,23.57
2018-11-05T05:59:30.665Z,22.87
2018-11-05T06:00:36.074Z,23.23
2018-11-05T06:01:41.554Z,22.37
2018-11-05T06:02:47.174Z,23.07
2018-11-05T06:03:52.666Z,22.00
2018-11-05T06:04:58.207Z,22.73
2018-11-05T06:06:03.754Z,23.20
2018-11-05T06:07:09.277Z,21.03
2018-11-05T06:08:14.792Z,21.93
2018-11-05T06:09:20.318Z,21.97
2018-11-05T06:10:25.736Z,23.67
2018-11-05T06:11:31.427Z,22.50
2018-11-05T06:12:37.027Z,21.00
2018-11-05T06:13:42.478Z,23.60
2018-11-05T06:14:47.960Z,21.17
2018-11-05T06:15:53.478Z,23.93
2018-11-05T06:16:59.049Z,24.50
2018-11-05T06:18:04.524Z,24.75
2018-11-05T06:19:10.050Z,21.50
2018-11-05T06:20:17.705Z,21.67
2018-11-05T06:21:23.178Z,22.77
2018-11-05T06:22:28.627Z,24.57
2018-11-05T06:23:34.182Z,25.00
2018-11-05T06:24:39.708Z,23.20
2018-11-05T06:25:45.179Z,22.63
2018-11-05T06:26:50.786Z,23.80
2018-11-05T06:27:56.422Z,26.57
2018-11-05T06:29:02.155Z,23.40
2018-11-05T06:30:11.886Z,22.97
2018-11-05T06:31:17.461Z,23.10
2018-11-05T06:32:23.001Z,22.13
2018-11-05T06:33:28.782Z,23.43
2018-11-05T06:34:34.504Z,23.37
2018-11-05T06:35:40.057Z,24.50
2018-11-05T06:36:45.581Z,25.80
2018-11-05T06:37:51.001Z,24.00
2018-11-05T06:38:56.549Z,23.47
2018-11-05T06:40:02.105Z,24.30
2018-11-05T06:41:08.343Z,22.37
2018-11-05T06:42:13.861Z,25.43
2018-11-05T06:43:19.320Z,23.57
2018-11-05T06:44:24.962Z,23.53
2018-11-05T06:45:30.480Z,23.43
2018-11-05T06:46:35.984Z,22.07
2018-11-05T06:47:43.023Z,23.33
2018-11-05T06:48:48.591Z,23.40
2018-11-05T06:49:54.090Z,24.53
2018-11-05T06:50:59.554Z,21.70
2018-11-05T06:52:05.131Z,23.80
2018-11-05T06:53:10.596Z,23.57
2018-11-05T06:54:16.097Z,25.47
2018-11-05T06:55:21.635Z,24.17
2018-11-05T06:56:27.140Z,25.47
2018-11-05T06:57:32.563Z,24.60
2018-11-05T06:58:37.999Z,23.77
2018-11-05T06:59:43.473Z,22.70
2018-11-05T07:00:48.959Z,24.97
2018-11-05T07:01:54.466Z,25.07
2018-11-05T07:02:59.965Z,23.97
2018-11-05T07:04:05.881Z,24.07
2018-11-05T07:05:11.506Z,23.90
2018-11-05T07:06:16.961Z,24.57
2018-11-05T07:07:22.385Z,24.70
2018-11-05T07:08:27.928Z,26.13
2018-11-05T07:09:33.366Z,24.97
2018-11-05T07:10:38.934Z,25.60
2018-11-05T07:11:44.546Z,25.67
2018-11-05T07:12:50.176Z,26.07
2018-11-05T07:13:55.597Z,25.27
2018-11-05T07:15:01.047Z,26.43
2018-11-05T07:16:06.516Z,27.90
2018-11-05T07:17:11.961Z,27.50
2018-11-05T07:18:17.574Z,45.50
2018-11-05T07:19:23.260Z,33.10
2018-11-05T07:20:28.684Z,24.90
2018-11-05T07:21:34.389Z,26.30
2018-11-05T07:22:40.022Z,23.73
2018-11-05T07:23:45.573Z,25.10
2018-11-05T07:24:51.179Z,26.90
2018-11-05T07:25:56.745Z,25.60
2018-11-05T07:27:02.272Z,23.80
2018-11-05T07:28:09.082Z,25.40
2018-11-05T07:29:14.547Z,26.20
2018-11-05T07:30:22.474Z,25.83
2018-11-05T07:31:27.974Z,27.43
2018-11-05T07:32:33.427Z,24.77
2018-11-05T07:33:38.921Z,25.97
2018-11-05T07:34:44.403Z,27.60
2018-11-05T07:35:49.862Z,26.70
2018-11-05T07:36:55.374Z,25.10
2018-11-05T07:38:00.956Z,25.30
2018-11-05T07:39:10.810Z,24.80
2018-11-05T07:40:17.298Z,25.20
2018-11-05T07:41:22.945Z,23.73
2018-11-05T07:42:28.753Z,26.70
2018-11-05T07:43:34.224Z,25.83
2018-11-05T07:44:39.649Z,25.57
2018-11-05T07:45:45.116Z,26.70
2018-11-05T07:46:50.614Z,27.17
2018-11-05T07:47:56.166Z,25.77
2018-11-05T07:49:01.955Z,25.57
2018-11-05T07:50:10.590Z,24.80
2018-11-05T07:51:16.159Z,27.33
2018-11-05T07:52:21.637Z,27.77
2018-11-05T07:53:27.105Z,23.43
2018-11-05T07:54:32.613Z,24.10
2018-11-05T07:55:38.137Z,25.70
2018-11-05T07:56:43.693Z,26.43
2018-11-05T07:57:50.068Z,26.30
2018-11-05T07:58:55.581Z,26.73
2018-11-05T08:00:01.425Z,26.30
2018-11-05T08:01:07.526Z,26.10
2018-11-05T08:02:12.953Z,27.60
2018-11-05T08:03:18.482Z,26.57
2018-11-05T08:04:24.129Z,26.63
2018-11-05T08:05:29.685Z,26.60
2018-11-05T08:06:35.121Z,26.30
2018-11-05T08:07:40.564Z,27.00
2018-11-05T08:08:46.089Z,26.50
2018-11-05T08:09:51.543Z,28.23
2018-11-05T08:10:57.105Z,28.33
2018-11-05T08:12:02.729Z,26.30
2018-11-05T08:13:08.352Z,28.60
2018-11-05T08:14:13.824Z,26.80
2018-11-05T08:15:20.561Z,28.07
2018-11-05T08:16:26.129Z,26.40
2018-11-05T08:17:31.709Z,26.90
2018-11-05T08:18:37.301Z,26.23
2018-11-05T08:19:42.799Z,27.80
2018-11-05T08:20:48.382Z,26.03
2018-11-05T08:21:53.809Z,28.03
2018-11-05T08:22:59.259Z,27.37
2018-11-05T08:24:05.062Z,25.00
2018-11-05T08:25:11.677Z,26.73
2018-11-05T08:26:17.191Z,28.27
2018-11-05T08:27:22.669Z,28.17
2018-11-05T08:28:28.240Z,26.80
2018-11-05T08:29:33.674Z,27.30
2018-11-05T08:30:39.339Z,26.90
2018-11-05T08:31:44.745Z,27.47
2018-11-05T08:32:50.288Z,24.57
2018-11-05T08:33:55.685Z,27.20
2018-11-05T08:35:01.225Z,27.33
2018-11-05T08:36:06.970Z,27.37
2018-11-05T08:37:12.545Z,29.00
2018-11-05T08:38:18.145Z,27.33
2018-11-05T08:39:23.611Z,28.50
2018-11-05T08:40:30.555Z,26.23
2018-11-05T08:41:36.050Z,28.70
2018-11-05T08:42:41.903Z,28.93
2018-11-05T08:43:47.398Z,26.97
2018-11-05T08:44:52.846Z,28.80
2018-11-05T08:45:58.392Z,27.70
2018-11-05T08:47:03.885Z,28.50
2018-11-05T08:48:09.305Z,27.33
2018-11-05T08:49:14.871Z,28.47
2018-11-05T08:50:21.714Z,28.30
2018-11-05T08:51:27.360Z,28.27
2018-11-05T08:52:32.577Z,29.67
2018-11-05T08:53:38.008Z,26.90
2018-11-05T08:54:43.482Z,27.80
2018-11-05T08:55:48.917Z,29.33
2018-11-05T08:56:54.389Z,27.80
2018-11-05T08:57:59.895Z,26.10
2018-11-05T08:59:05.501Z,28.07
2018-11-05T09:00:21.413Z,28.77
2018-11-05T09:01:33.534Z,28.07
2018-11-05T09:02:39.019Z,27.53
2018-11-05T09:03:44.700Z,28.70
2018-11-05T09:04:50.346Z,27.87
2018-11-05T09:05:55.751Z,27.10
2018-11-05T09:07:01.305Z,30.67
2018-11-05T09:08:06.781Z,29.40
2018-11-05T09:09:12.234Z,28.57
2018-11-05T09:10:18.022Z,29.23
2018-11-05T09:11:23.790Z,28.13
2018-11-05T09:12:28.952Z,28.97
2018-11-05T09:13:34.476Z,28.03
2018-11-05T09:14:40.230Z,27.90
2018-11-05T09:15:45.677Z,28.50
2018-11-05T09:16:51.124Z,30.83
2018-11-05T09:17:56.596Z,30.03
2018-11-05T09:19:02.097Z,27.93
2018-11-05T09:20:10.056Z,29.27
2018-11-05T09:21:15.578Z,31.90
2018-11-05T09:22:20.981Z,29.77
2018-11-05T09:23:26.526Z,25.70
2018-11-05T09:24:32.005Z,29.67
2018-11-05T09:25:37.541Z,28.97
2018-11-05T09:26:43.103Z,28.40
2018-11-05T09:27:48.661Z,27.10
2018-11-05T09:28:54.110Z,29.50
2018-11-05T09:29:59.585Z,29.10
2018-11-05T09:31:05.106Z,30.40
2018-11-05T09:32:10.684Z,27.90
2018-11-05T09:33:16.320Z,30.40
2018-11-05T09:34:21.826Z,29.20
2018-11-05T09:35:27.338Z,28.10
2018-11-05T09:36:32.914Z,27.57
2018-11-05T09:37:38.425Z,28.90
2018-11-05T09:38:43.922Z,29.40
2018-11-05T09:39:49.492Z,29.10
2018-11-05T09:40:55.096Z,28.80
2018-11-05T09:42:00.589Z,26.80
2018-11-05T09:43:06.865Z,29.27
2018-11-05T09:44:12.261Z,30.47
2018-11-05T09:45:20.385Z,29.77
2018-11-05T09:46:25.895Z,28.73
2018-11-05T09:47:31.447Z,29.40
2018-11-05T09:48:36.990Z,29.40
2018-11-05T09:49:42.461Z,29.10
2018-11-05T09:50:48.026Z,27.13
2018-11-05T09:51:53.422Z,26.10
2018-11-05T09:52:59.069Z,27.20
2018-11-05T09:54:04.869Z,30.40
2018-11-05T09:55:11.385Z,28.50
2018-11-05T09:56:16.918Z,29.20
2018-11-05T09:57:22.389Z,28.60
2018-11-05T09:58:27.901Z,28.87
2018-11-05T09:59:33.429Z,28.10
2018-11-05T10:00:40.428Z,26.50
2018-11-05T10:01:45.947Z,28.90
2018-11-05T10:02:56.838Z,27.90
2018-11-05T10:04:02.427Z,28.17
2018-11-05T10:05:08.105Z,26.57
2018-11-05T10:06:13.336Z,27.20
2018-11-05T10:07:18.951Z,29.20
2018-11-05T10:08:24.484Z,27.97
2018-11-05T10:09:29.981Z,26.50
2018-11-05T10:10:35.570Z,30.10
2018-11-05T10:11:41.013Z,27.40
2018-11-05T10:12:46.755Z,27.00
2018-11-05T10:13:52.440Z,26.30
2018-11-05T10:14:59.900Z,27.30
2018-11-05T10:16:11.016Z,27.50
2018-11-05T10:17:16.553Z,25.40
2018-11-05T10:18:22.037Z,28.83
2018-11-05T10:19:27.465Z,28.13
2018-11-05T10:20:32.930Z,28.13
2018-11-05T10:21:38.531Z,29.00
2018-11-05T10:22:44.603Z,26.03
2018-11-05T10:23:50.104Z,27.30
2018-11-05T10:24:56.033Z,27.03
2018-11-05T10:26:01.522Z,27.43
2018-11-05T10:27:07.124Z,28.80
2018-11-05T10:28:12.699Z,27.43
2018-11-05T10:29:18.117Z,29.07
2018-11-05T10:30:25.983Z,27.07
2018-11-05T10:31:31.529Z,27.10
2018-11-05T10:32:36.984Z,27.83
2018-11-05T10:33:44.697Z,29.20
2018-11-05T10:34:50.222Z,28.63
2018-11-05T10:35:56.949Z,29.13
2018-11-05T10:37:02.413Z,29.90
2018-11-05T10:38:07.980Z,27.97
2018-11-05T10:39:13.596Z,31.13
2018-11-05T10:40:20.091Z,27.30
2018-11-05T10:41:25.497Z,28.97
2018-11-05T10:42:31.062Z,26.83
2018-11-05T10:43:36.597Z,29.70
2018-11-05T10:44:42.065Z,29.90
2018-11-05T10:45:47.551Z,30.20
2018-11-05T10:46:52.987Z,29.00
2018-11-05T10:47:58.469Z,32.57
2018-11-05T10:49:04.050Z,31.20
2018-11-05T10:50:11.628Z,31.37
2018-11-05T10:51:17.263Z,30.03
2018-11-05T10:52:22.656Z,31.77
2018-11-05T10:53:28.357Z,29.17
2018-11-05T10:54:33.845Z,31.60
2018-11-05T10:55:39.302Z,32.20
2018-11-05T10:56:44.772Z,31.00
2018-11-05T10:57:50.668Z,31.10
2018-11-05T10:58:56.155Z,29.17
2018-11-05T11:00:01.674Z,29.27
2018-11-05T11:01:14.492Z,30.10
2018-11-05T11:02:25.010Z,29.53
2018-11-05T11:03:35.950Z,28.30
2018-11-05T11:04:41.392Z,29.47
2018-11-05T11:05:46.876Z,29.50
2018-11-05T11:06:52.333Z,30.80
2018-11-05T11:07:58.740Z,29.50
2018-11-05T11:09:04.794Z,29.73
2018-11-05T11:10:10.276Z,30.97
2018-11-05T11:11:15.968Z,30.27
2018-11-05T11:12:21.530Z,29.10
2018-11-05T11:13:27.071Z,29.37
2018-11-05T11:14:32.538Z,30.47
2018-11-05T11:15:38.013Z,28.73
2018-11-05T11:16:43.544Z,30.03
2018-11-05T11:17:49.092Z,29.20
2018-11-05T11:18:54.581Z,30.37
2018-11-05T11:20:00.054Z,27.77
2018-11-05T11:21:06.666Z,30.07
2018-11-05T11:22:12.276Z,31.00
2018-11-05T11:23:17.892Z,29.90
2018-11-05T11:24:23.437Z,28.90
2018-11-05T11:25:28.958Z,28.67
2018-11-05T11:26:34.455Z,30.70
2018-11-05T11:27:39.925Z,29.73
2018-11-05T11:28:45.556Z,29.33
2018-11-05T11:29:50.938Z,29.93
2018-11-05T11:30:56.725Z,31.50
2018-11-05T11:32:02.281Z,29.63
2018-11-05T11:33:07.993Z,29.47
2018-11-05T11:34:13.650Z,29.50
2018-11-05T11:35:19.203Z,27.80
2018-11-05T11:36:24.758Z,27.47
2018-11-05T11:37:30.489Z,29.00
2018-11-05T11:38:36.230Z,27.50
2018-11-05T11:39:41.686Z,29.57
2018-11-05T11:40:47.175Z,26.20
2018-11-05T11:41:52.682Z,25.07
2018-11-05T11:42:59.052Z,28.40
2018-11-05T11:44:05.074Z,28.17
2018-11-05T11:45:11.897Z,26.40
2018-11-05T11:46:17.549Z,27.80
2018-11-05T11:47:23.120Z,25.40
2018-11-05T11:48:28.585Z,26.77
2018-11-05T11:49:34.051Z,26.53
2018-11-05T11:50:39.482Z,26.50
2018-11-05T11:51:44.912Z,25.20
2018-11-05T11:52:50.797Z,26.43
2018-11-05T11:53:56.140Z,26.63
2018-11-05T11:55:01.606Z,28.03
2018-11-05T11:56:07.102Z,27.47
2018-11-05T11:57:12.613Z,26.87
2018-11-05T11:58:18.205Z,27.37
2018-11-05T11:59:23.733Z,26.27
2018-11-05T12:00:29.264Z,25.57
2018-11-05T12:01:39.632Z,25.27
2018-11-05T12:02:45.477Z,26.30
2018-11-05T12:03:51.184Z,26.33
2018-11-05T12:04:56.831Z,26.23
2018-11-05T12:06:02.220Z,26.13
2018-11-05T12:07:08.128Z,25.50
2018-11-05T12:08:13.670Z,25.57
2018-11-05T12:09:21.334Z,27.20
2018-11-05T12:10:26.915Z,27.63
2018-11-05T12:11:32.321Z,26.80
2018-11-05T12:12:37.800Z,26.70
2018-11-05T12:13:43.206Z,26.67
2018-11-05T12:14:48.951Z,27.50
2018-11-05T12:15:54.457Z,26.13
2018-11-05T12:17:00.065Z,27.80
2018-11-05T12:18:05.802Z,25.90
2018-11-05T12:19:11.265Z,27.43
2018-11-05T12:20:24.477Z,26.17
2018-11-05T12:21:29.925Z,26.47
2018-11-05T12:22:35.377Z,25.97
2018-11-05T12:23:40.800Z,25.43
2018-11-05T12:24:46.317Z,28.27
2018-11-05T12:25:51.856Z,26.30
2018-11-05T12:26:57.404Z,24.73
2018-11-05T12:28:02.945Z,23.70
2018-11-05T12:29:08.466Z,25.57
2018-11-05T12:30:17.873Z,27.40
2018-11-05T12:31:23.400Z,26.60
2018-11-05T12:32:28.849Z,26.00
2018-11-05T12:33:34.314Z,24.80
2018-11-05T12:34:39.824Z,25.33
2018-11-05T12:35:45.372Z,24.93
2018-11-05T12:36:50.998Z,25.13
2018-11-05T12:37:56.770Z,28.90
2018-11-05T12:39:02.265Z,27.10
2018-11-05T12:40:10.513Z,29.07
2018-11-05T12:41:16.038Z,27.50
2018-11-05T12:42:21.738Z,27.07
2018-11-05T12:43:27.244Z,25.27
2018-11-05T12:44:32.749Z,25.97
2018-11-05T12:45:38.291Z,25.90
2018-11-05T12:46:43.729Z,27.00
2018-11-05T12:47:49.210Z,27.60
2018-11-05T12:48:54.662Z,24.80
2018-11-05T12:50:00.267Z,26.37
2018-11-05T12:51:06.546Z,26.57
2018-11-05T12:52:12.000Z,25.47
2018-11-05T12:53:17.486Z,26.87
2018-11-05T12:54:23.208Z,24.17
2018-11-05T12:55:29.009Z,27.13
2018-11-05T12:56:34.648Z,27.20
2018-11-05T12:57:40.112Z,26.40
2018-11-05T12:58:45.664Z,25.73
2018-11-05T12:59:51.142Z,23.90
2018-11-05T13:00:56.646Z,28.67
2018-11-05T13:02:02.063Z,26.40
2018-11-05T13:03:07.502Z,27.73
2018-11-05T13:04:12.985Z,25.27
2018-11-05T13:05:18.856Z,25.87
2018-11-05T13:06:24.306Z,27.83
2018-11-05T13:07:29.857Z,27.60
2018-11-05T13:08:35.409Z,29.27
2018-11-05T13:09:41.040Z,29.77
2018-11-05T13:10:46.552Z,30.03
2018-11-05T13:11:52.085Z,29.53
2018-11-05T13:12:57.577Z,26.73
2018-11-05T13:14:03.094Z,26.53
2018-11-05T13:15:10.295Z,28.00
2018-11-05T13:16:15.831Z,29.17
2018-11-05T13:17:21.615Z,27.37
2018-11-05T13:18:27.234Z,29.77
2018-11-05T13:19:32.730Z,26.63
2018-11-05T13:20:38.210Z,26.10
2018-11-05T13:21:43.859Z,28.00
2018-11-05T13:22:49.343Z,27.77
2018-11-05T13:23:55.022Z,27.40
2018-11-05T13:25:00.457Z,27.00
2018-11-05T13:26:06.318Z,27.80
2018-11-05T13:27:11.782Z,27.60
2018-11-05T13:28:17.287Z,28.67
2018-11-05T13:29:22.700Z,27.60
2018-11-05T13:30:28.152Z,28.07
2018-11-05T13:31:33.657Z,28.33
2018-11-05T13:32:39.449Z,27.27
2018-11-05T13:33:44.985Z,29.00
2018-11-05T13:34:50.410Z,29.53
2018-11-05T13:35:55.853Z,29.40
2018-11-05T13:37:01.519Z,24.40
2018-11-05T13:38:07.407Z,27.90
2018-11-05T13:39:12.703Z,28.43
2018-11-05T13:40:23.152Z,26.30
2018-11-05T13:41:28.770Z,25.33
2018-11-05T13:42:34.500Z,28.20
2018-11-05T13:43:40.080Z,27.00
2018-11-05T13:44:45.790Z,27.23
2018-11-05T13:45:51.504Z,28.50
2018-11-05T13:46:57.293Z,26.77
2018-11-05T13:48:02.508Z,26.33
2018-11-05T13:49:08.412Z,27.30
2018-11-05T13:50:13.869Z,27.40
2018-11-05T13:51:19.320Z,26.87
2018-11-05T13:52:24.951Z,27.60
2018-11-05T13:53:30.361Z,25.73
2018-11-05T13:54:35.938Z,26.90
2018-11-05T13:55:41.458Z,26.13
2018-11-05T13:56:47.073Z,27.50
2018-11-05T13:57:52.709Z,24.97
2018-11-05T13:58:58.122Z,25.10
2018-11-05T14:00:04.066Z,27.47
2018-11-05T14:01:09.658Z,24.27
2018-11-05T14:02:15.236Z,25.47
2018-11-05T14:03:20.675Z,25.17
2018-11-05T14:04:26.252Z,26.13
2018-11-05T14:05:31.750Z,28.13
2018-11-05T14:06:37.230Z,25.27